Главная страница
METAR-TAF:

METAR-TAF

Аэропорты :

Ставангер, Норвегия

широта: 58-53N, долгота: 005-38E, высота над уровнем моря: 0 м

Текущие метеонаблюдения

Эта сводка был подготовлена 30 минут назад, в 06:20 UTC
Ветер 5 Узел от юго-восточный
Температура 2°C
Влажность 93%
Давление 1008 hPa
Видимость 10 км и более
Нет облачности ниже 1500 м, и нет кучево-дождевой облачности

METAR: ENZV 170620Z 14005KT CAVOK 02/01 Q1008 NOSIG

Время: 07:50 (06:50 UTC)

Прогноз

Прогноз действительный с 17-го 06 UTC до 18-го 06 UTC
Ветер 7 Узел от юго-восточный
Видимость 10 км и более
Отдельные облака на высоте 4000 фута

TAF: ENZV 1706/1806 14007KT 9999 SCT040

Метеонаблюдения и прогнозы для более 4000 аэропортов (сводки METAR и TAF).

Имеющиеся станции представлены на карте желтыми и красными точками.

Чтобы увидеть название станции, наведите на нее мышь.

Затем щелкните, чтобы увидеть метеонаблюдения и метеопрогнозы.

Управление картой: чтобы увеличить масштаб, щелкните зеленые кнопки с черным крестиком; чтобы уменьшить масштаб, щелкните зеленую кнопку с тире; для просмотра соседних карт щелкайте зеленые стрелки.


METAR-TAF: